Time;durP1;ratioP1;P1;durP2;ratioP2;P2;SDS_P1;SDS_P2;PMS_P1;PMS_P2;Temp;Humidity;BMP_temperature;BMP_pressure;BME280_temperature;BME280_humidity;BME280_pressure;Samples;Min_cycle;Max_cycle;Signal;HPM_P1;HPM_P2
2022/06/16 00:00:47;;;;;;;1.88;1.10;;;21.70;36.50;;;19.89;38.39;101282.31;12243506;19;20016;-81
2022/06/16 00:04:49;;;;;;;1.55;1.38;;;21.70;36.50;;;19.83;38.58;101277.53;12242936;19;20082;-81
2022/06/16 00:08:50;;;;;;;4.65;2.03;;;21.90;36.70;;;19.76;38.35;101271.06;12239613;19;20041;-81
2022/06/16 00:12:52;;;;;;;1.45;1.30;;;21.60;36.70;;;19.41;38.67;101224.53;12239351;19;20006;-81
2022/06/16 00:16:55;;;;;;;1.42;1.33;;;21.60;36.70;;;19.29;38.96;101219.44;12235635;19;20030;-81
2022/06/16 00:20:57;;;;;;;1.92;1.55;;;21.50;36.70;;;19.48;38.96;101263.78;12237247;19;20018;-82
2022/06/16 00:24:59;;;;;;;3.25;1.60;;;21.40;36.80;;;19.45;38.86;101263.06;12237481;19;20019;-82
2022/06/16 00:29:00;;;;;;;2.70;1.40;;;21.40;36.90;;;19.19;39.18;101227.31;12238628;19;20475;-82
2022/06/16 00:33:02;;;;;;;1.33;1.25;;;21.20;36.80;;;19.45;39.24;101275.47;12235471;19;20007;-82
2022/06/16 00:37:05;;;;;;;1.77;1.40;;;21.20;36.90;;;19.27;39.21;101250.50;12231965;19;20014;-82
2022/06/16 00:41:08;;;;;;;3.47;1.10;;;21.20;37.00;;;19.24;39.13;101248.97;12236228;19;20048;-82
2022/06/16 00:46:11;;;;;;;1.85;1.30;;;21.20;37.10;;;19.29;39.14;101257.34;12237989;19;20022;-82
2022/06/16 00:50:13;;;;;;;2.45;1.25;;;21.10;37.10;;;19.17;39.22;101251.28;12232814;19;20014;-80
2022/06/16 00:54:46;;;;;;;1.45;0.90;;;21.10;37.10;;;19.06;39.54;101250.47;12236351;19;20038;-81
2022/06/16 00:58:56;;;;;;;6.28;2.63;;;21.00;37.20;;;18.96;39.68;101255.72;12235582;19;20029;-81
2022/06/16 01:02:57;;;;;;;2.88;1.40;;;20.90;37.30;;;18.86;39.38;101260.91;12239884;19;20003;-81
2022/06/16 01:07:05;;;;;;;1.38;1.27;;;20.80;37.20;;;18.86;39.75;101250.31;12237770;19;20095;-81
2022/06/16 01:13:41;;;;;;;5.32;1.55;;;20.80;37.40;;;18.83;40.00;101245.28;12232234;19;20010;-81
2022/06/16 01:15:57;;;;;;;1.35;1.23;;;20.70;37.60;;;18.78;40.27;101260.69;12235382;19;20018;-81
2022/06/16 01:20:28;;;;;;;2.17;1.48;;;20.70;37.60;;;18.72;40.18;101256.72;12239355;19;20532;-81
2022/06/16 01:25:19;;;;;;;1.33;1.20;;;20.60;37.70;;;18.65;39.79;101270.56;12238117;19;20094;-81
2022/06/16 01:29:47;;;;;;;1.40;1.30;;;20.50;37.70;;;18.59;40.13;101263.94;12240495;19;20010;-81
2022/06/16 01:34:12;;;;;;;1.75;1.23;;;20.40;37.80;;;18.30;40.37;101237.19;12235009;19;20015;-81
2022/06/16 01:39:00;;;;;;;1.40;1.15;;;20.30;37.90;;;17.94;40.56;101202.13;12231312;19;20015;-81
2022/06/16 01:43:29;;;;;;;1.93;1.43;;;20.20;37.80;;;18.26;40.45;101262.19;12235398;19;20362;-81
2022/06/16 01:47:33;;;;;;;1.88;1.20;;;20.20;37.80;;;18.09;40.58;101229.16;12233647;19;20487;-81
2022/06/16 01:51:46;;;;;;;1.92;1.45;;;20.10;37.80;;;17.97;40.76;101224.84;12246110;19;20014;-81
2022/06/16 01:56:05;;;;;;;2.15;1.20;;;20.00;38.00;;;17.92;40.80;101218.09;12247267;19;20406;-81
2022/06/16 02:00:21;;;;;;;1.38;1.25;;;20.00;38.20;;;18.11;40.59;101251.84;12248667;19;20022;-81
2022/06/16 02:04:47;;;;;;;1.23;1.13;;;19.90;38.10;;;17.95;41.05;101232.88;12251516;19;20018;-80
2022/06/16 02:09:00;;;;;;;2.85;1.30;;;19.90;38.20;;;17.92;41.08;101238.41;12246514;19;20010;-81
2022/06/16 02:13:05;;;;;;;1.52;1.02;;;19.80;38.30;;;17.97;40.90;101241.53;12241336;19;20455;-80
2022/06/16 02:17:20;;;;;;;2.40;1.52;;;19.80;38.40;;;17.81;40.86;101225.19;12245032;19;20010;-80
2022/06/16 02:21:45;;;;;;;1.58;1.33;;;19.70;38.30;;;17.77;41.33;101213.13;12247266;19;20374;-80
2022/06/16 02:25:53;;;;;;;1.52;1.23;;;19.70;38.70;;;17.57;41.27;101194.41;12246246;19;20027;-80
2022/06/16 02:29:54;;;;;;;3.55;1.67;;;19.70;38.70;;;17.61;41.12;101224.91;12248266;19;20015;-80
2022/06/16 02:34:02;;;;;;;1.50;1.30;;;19.60;38.60;;;17.55;41.42;101213.97;12242848;19;20022;-80
2022/06/16 02:38:30;;;;;;;2.78;1.25;;;19.60;38.70;;;17.69;41.84;101243.66;12243192;19;20010;-80
2022/06/16 02:43:07;;;;;;;2.15;1.58;;;19.60;38.90;;;17.72;41.47;101247.84;12243881;19;20365;-80
2022/06/16 02:47:48;;;;;;;4.10;1.40;;;19.50;38.80;;;17.60;41.76;101241.69;12242167;19;20588;-80
2022/06/16 02:52:18;;;;;;;2.20;1.33;;;19.50;39.20;;;17.54;41.96;101239.53;12245182;19;20006;-80
2022/06/16 02:56:37;;;;;;;1.52;1.42;;;19.50;39.20;;;17.30;42.12;101210.56;12244141;19;20062;-80
2022/06/16 03:00:48;;;;;;;2.08;1.38;;;19.60;39.40;;;17.42;42.01;101246.59;12243580;19;20026;-80
2022/06/16 03:04:54;;;;;;;2.28;1.38;;;19.40;39.30;;;17.25;42.20;101236.44;12243531;19;20022;-80
2022/06/16 03:08:58;;;;;;;1.45;1.08;;;19.30;39.30;;;17.14;42.07;101231.97;12242581;19;20026;-80
2022/06/16 03:12:59;;;;;;;1.85;1.27;;;19.20;39.10;;;17.18;42.26;101229.97;12241490;19;20495;-80
2022/06/16 03:17:03;;;;;;;2.10;1.20;;;19.20;39.50;;;17.20;42.61;101228.91;12240628;19;20015;-80
2022/06/16 03:21:09;;;;;;;1.63;1.52;;;19.20;39.60;;;17.23;42.46;101227.84;12244284;19;20023;-82
2022/06/16 03:25:12;;;;;;;3.30;1.30;;;19.40;39.80;;;17.21;42.67;101222.66;12242069;19;20029;-80
2022/06/16 03:29:14;;;;;;;1.40;1.30;;;19.10;39.80;;;17.37;42.50;101245.25;12243712;19;20018;-80
2022/06/16 03:33:16;;;;;;;1.48;1.23;;;19.10;39.80;;;17.42;42.48;101240.47;12239725;19;20019;-80
2022/06/16 03:37:23;;;;;;;1.23;1.08;;;19.20;39.80;;;17.39;42.78;101227.47;12241935;19;20023;-80
2022/06/16 03:41:31;;;;;;;2.38;1.27;;;19.50;40.10;;;17.11;42.70;101179.44;12241620;19;20388;-80
2022/06/16 03:45:38;;;;;;;1.98;1.38;;;19.20;39.90;;;17.32;42.93;101213.91;12240122;19;20026;-80
2022/06/16 03:49:40;;;;;;;1.63;1.48;;;19.30;40.00;;;17.49;42.77;101252.25;12241289;19;20022;-80
2022/06/16 03:53:42;;;;;;;1.50;1.35;;;19.30;40.20;;;17.44;43.04;101249.09;12238869;19;20472;-80
2022/06/16 03:57:46;;;;;;;3.80;1.77;;;19.50;40.10;;;17.38;42.95;101229.28;12238649;19;20035;-80
2022/06/16 04:01:49;;;;;;;1.63;1.38;;;19.50;40.30;;;17.52;42.93;101254.66;12239961;19;20577;-80
2022/06/16 04:05:52;;;;;;;1.67;1.58;;;19.50;40.40;;;17.27;43.16;101208.16;12240526;19;20014;-80
2022/06/16 04:09:54;;;;;;;3.92;1.20;;;19.30;40.30;;;17.45;43.21;101234.97;12240756;19;20014;-80
2022/06/16 04:14:07;;;;;;;2.13;1.35;;;19.40;41.00;;;17.40;43.70;101221.28;12237030;19;20010;-82
2022/06/16 04:18:11;;;;;;;1.85;1.33;;;19.40;40.70;;;17.46;43.59;101232.19;12237461;19;20041;-80
2022/06/16 04:22:18;;;;;;;1.95;1.40;;;19.30;40.70;;;17.48;43.59;101232.91;12241490;19;20017;-80
2022/06/16 04:26:33;;;;;;;1.90;1.70;;;19.70;40.90;;;17.42;43.33;101216.72;12238338;19;20022;-79
2022/06/16 04:30:36;;;;;;;3.30;1.30;;;19.30;40.80;;;17.38;43.68;101209.97;12237044;19;20026;-80
2022/06/16 04:34:39;;;;;;;1.58;1.30;;;19.40;41.00;;;17.41;43.75;101207.94;12233961;19;20057;-80
2022/06/16 04:38:42;;;;;;;5.20;1.58;;;19.30;41.30;;;17.68;43.99;101241.09;12232414;19;20518;-79
2022/06/16 04:42:43;;;;;;;2.15;1.63;;;19.40;41.30;;;17.64;43.77;101232.59;12233173;19;20049;-80
2022/06/16 04:46:46;;;;;;;1.50;1.40;;;19.50;41.40;;;17.78;44.03;101230.69;12231950;19;20018;-80
2022/06/16 04:50:49;;;;;;;1.95;1.40;;;19.70;41.70;;;17.76;44.06;101222.88;12233902;19;20435;-79
2022/06/16 04:54:54;;;;;;;1.45;1.30;;;19.50;41.60;;;17.94;43.96;101236.50;12232748;19;20013;-80
2022/06/16 04:59:27;;;;;;;1.70;1.52;;;19.60;41.60;;;17.80;43.99;101208.50;12233281;19;20471;-80
2022/06/16 05:03:49;;;;;;;2.13;1.52;;;19.70;41.90;;;18.10;44.39;101244.06;12233845;19;20022;-80
2022/06/16 05:07:58;;;;;;;1.73;1.35;;;19.80;41.80;;;18.17;44.45;101241.75;12231336;19;20021;-80
2022/06/16 05:12:18;;;;;;;2.33;1.83;;;19.80;41.90;;;18.04;44.42;101215.47;12232703;19;20018;-80
2022/06/16 05:21:36;;;;;;;1.65;1.35;;;20.00;42.00;;;18.19;44.67;101226.63;12215162;19;20010;-82
2022/06/16 05:26:13;;;;;;;2.30;1.45;;;20.10;42.10;;;17.58;45.03;101132.72;12223854;19;20023;-81
2022/06/16 05:30:34;;;;;;;2.60;1.27;;;20.20;42.50;;;18.23;44.56;101214.88;12227929;19;20078;-81
2022/06/16 05:34:44;;;;;;;2.35;1.85;;;20.50;42.20;;;18.44;44.54;101242.19;12230952;19;20041;-82
2022/06/16 05:38:52;;;;;;;1.60;1.30;;;20.30;42.10;;;18.71;44.68;101262.97;12229790;19;20018;-81
2022/06/16 05:43:22;;;;;;;2.38;1.70;;;20.40;42.10;;;18.81;44.63;101278.97;12229367;19;20006;-81
2022/06/16 05:47:23;;;;;;;1.60;1.50;;;20.50;42.60;;;18.71;44.67;101256.81;12228193;19;20613;-81
2022/06/16 05:51:29;;;;;;;3.35;1.80;;;20.60;42.30;;;18.99;44.65;101277.47;12233267;19;20011;-82
2022/06/16 05:55:37;;;;;;;2.38;1.60;;;20.70;42.20;;;19.21;44.69;101286.28;12239145;19;20021;-81
2022/06/16 05:59:41;;;;;;;4.72;1.98;;;21.00;42.50;;;19.43;44.67;101307.34;12237577;19;20022;-78
2022/06/16 06:03:44;;;;;;;4.95;1.90;;;20.90;42.30;;;19.58;44.69;101296.47;12234286;19;20100;-80
2022/06/16 06:16:49;;;;;;;1.60;1.50;;;21.30;42.10;;;19.76;44.63;101280.84;12230412;19;20015;-82
2022/06/16 06:20:54;;;;;;;2.53;1.73;;;21.40;42.10;;;19.78;44.62;101282.38;12233093;19;20010;-82
2022/06/16 06:24:58;;;;;;;1.90;1.73;;;21.50;42.00;;;19.86;44.67;101261.38;12223432;19;20018;-82
2022/06/16 06:29:04;;;;;;;4.35;1.70;;;21.60;42.20;;;20.05;44.52;101265.09;12234867;19;20023;-82
2022/06/16 06:33:06;;;;;;;2.28;1.85;;;21.70;42.20;;;20.05;44.59;101235.91;12235977;19;20505;-80
2022/06/16 06:37:11;;;;;;;2.00;1.80;;;21.80;42.10;;;20.36;44.85;101273.88;12233446;19;20019;-81
2022/06/16 06:41:13;;;;;;;7.88;1.70;;;22.00;42.00;;;20.57;44.62;101292.38;12238903;19;20368;-80
2022/06/16 06:45:16;;;;;;;1.75;1.58;;;22.10;41.70;;;20.73;44.34;101305.13;12217194;19;20081;-80
2022/06/16 06:49:17;;;;;;;1.80;1.70;;;22.30;41.80;;;20.83;44.62;101289.22;12217181;19;20137;-80
2022/06/16 06:53:18;;;;;;;2.88;1.73;;;22.30;41.70;;;20.77;44.15;101269.38;12221194;19;20022;-80
2022/06/16 06:57:27;;;;;;;2.10;1.60;;;22.50;41.80;;;21.20;44.62;101311.47;12222091;19;20010;-80
2022/06/16 07:01:28;;;;;;;2.00;1.55;;;22.70;41.70;;;21.31;44.42;101333.56;12223524;19;20563;-80
2022/06/16 07:05:30;;;;;;;2.25;1.38;;;22.80;41.50;;;21.34;44.03;101328.81;12224175;19;20094;-80
2022/06/16 07:09:32;;;;;;;4.32;1.58;;;23.00;41.20;;;21.30;43.91;101316.78;12210446;19;20548;-80
2022/06/16 07:13:33;;;;;;;2.40;1.35;;;23.10;41.00;;;21.45;44.21;101322.53;12223230;19;20482;-80
2022/06/16 07:17:35;;;;;;;2.13;1.63;;;23.10;40.70;;;21.39;44.06;101307.19;12218958;19;20011;-80
2022/06/16 07:21:36;;;;;;;5.35;1.65;;;23.10;40.70;;;21.50;43.98;101315.00;12222233;19;20014;-80
2022/06/16 07:25:38;;;;;;;1.85;1.35;;;23.20;40.80;;;21.56;44.18;101318.91;12219508;19;20018;-80
2022/06/16 07:29:39;;;;;;;1.98;1.30;;;23.50;41.00;;;21.61;44.04;101314.84;12217597;19;20019;-79
2022/06/16 07:33:42;;;;;;;2.03;1.60;;;23.30;41.10;;;21.91;44.14;101336.06;12226371;19;20007;-80
2022/06/16 07:37:44;;;;;;;2.47;1.50;;;23.50;41.20;;;22.22;43.77;101365.94;12228367;19;20007;-83
2022/06/16 07:41:45;;;;;;;3.60;1.50;;;23.60;41.00;;;22.18;43.57;101333.47;12235020;19;20052;-79
2022/06/16 07:45:49;;;;;;;2.70;1.20;;;23.80;40.90;;;22.31;43.84;101355.28;12231556;19;20025;-80
2022/06/16 07:49:50;;;;;;;4.32;1.58;;;23.90;40.90;;;22.43;43.51;101371.06;12221935;19;20018;-81
2022/06/16 07:53:52;;;;;;;1.45;1.35;;;24.00;40.70;;;22.21;43.85;101330.53;12219826;19;20034;-80
2022/06/16 07:57:54;;;;;;;2.83;1.67;;;24.00;40.50;;;22.42;43.66;101356.94;12218775;19;20391;-81
2022/06/16 08:01:55;;;;;;;1.55;1.30;;;24.20;40.60;;;22.33;43.81;101340.97;12221054;19;20528;-82
2022/06/16 08:05:58;;;;;;;2.15;1.42;;;24.20;40.40;;;22.43;43.45;101350.59;12220006;19;20089;-80
2022/06/16 08:10:00;;;;;;;5.30;1.48;;;24.30;40.40;;;22.63;43.40;101380.66;12220893;19;20360;-80
2022/06/16 08:14:04;;;;;;;1.60;1.20;;;24.60;40.10;;;22.70;43.51;101356.94;12217787;19;20049;-80
2022/06/16 08:18:08;;;;;;;3.83;1.30;;;24.30;40.10;;;22.71;43.50;101322.16;12217781;19;20018;-80
2022/06/16 08:22:12;;;;;;;4.13;1.30;;;24.50;40.10;;;22.89;43.39;101324.00;12222108;19;20022;-80
2022/06/16 08:26:14;;;;;;;1.83;1.40;;;24.50;39.90;;;23.00;42.86;101333.66;12208575;19;20117;-81
2022/06/16 08:30:17;;;;;;;1.45;1.35;;;24.60;39.80;;;23.05;42.90;101334.03;12214543;19;20018;-81
2022/06/16 08:34:18;;;;;;;2.17;1.23;;;24.90;39.80;;;23.25;42.64;101358.69;12208298;19;20845;-79
2022/06/16 08:38:20;;;;;;;1.45;1.35;;;24.80;39.40;;;23.49;42.74;101360.75;12209737;19;20579;-79
2022/06/16 08:42:39;;;;;;;1.80;1.27;;;25.00;39.30;;;23.54;42.34;101342.47;12216110;19;20525;-79
2022/06/16 08:47:15;;;;;;;1.30;1.20;;;25.10;39.20;;;23.89;42.55;101357.59;12215729;19;20355;-80
2022/06/16 08:51:26;;;;;;;1.40;1.30;;;25.30;39.20;;;23.96;42.27;101349.81;12220499;19;20022;-81
2022/06/16 08:56:14;;;;;;;1.48;1.30;;;25.40;39.10;;;24.41;41.89;101386.94;12214843;19;20828;-81
2022/06/16 09:00:21;;;;;;;3.53;1.30;;;25.70;39.10;;;24.58;41.81;101363.84;12226223;19;20014;-80
2022/06/16 09:04:39;;;;;;;1.67;1.52;;;25.90;38.90;;;24.77;41.55;101368.09;12231897;19;20030;-80
2022/06/16 09:09:02;;;;;;;1.40;1.13;;;26.20;38.70;;;25.09;41.53;101387.91;12229656;19;20019;-80
2022/06/16 09:13:34;;;;;;;1.13;1.10;;;26.40;38.50;;;25.20;41.04;101389.47;12227715;19;20021;-80
2022/06/16 09:18:08;;;;;;;2.40;1.40;;;26.60;38.20;;;25.45;40.63;101403.69;12226466;19;20058;-80
2022/06/16 09:22:48;;;;;;;1.85;1.27;;;26.80;38.00;;;25.50;40.50;101388.00;12233563;19;20029;-81
2022/06/16 09:27:03;;;;;;;1.63;1.38;;;27.00;37.40;;;25.63;40.44;101395.50;12224024;19;20035;-80
2022/06/16 09:31:24;;;;;;;3.22;1.30;;;27.10;37.30;;;25.72;40.05;101395.34;12227210;19;20026;-80
2022/06/16 09:35:55;;;;;;;2.38;1.30;;;27.20;37.10;;;25.94;39.97;101415.25;12218748;19;20019;-80
2022/06/16 09:40:28;;;;;;;1.60;1.50;;;27.30;37.00;;;26.09;39.87;101418.09;12224872;19;20039;-80
2022/06/16 09:45:01;;;;;;;1.60;1.25;;;27.50;36.90;;;25.91;39.67;101383.47;12227651;19;20034;-80
2022/06/16 09:49:20;;;;;;;2.45;1.35;;;27.60;36.70;;;26.28;39.13;101422.25;12229999;19;20014;-80
2022/06/16 09:53:43;;;;;;;2.80;1.38;;;27.70;36.60;;;26.34;39.00;101431.44;12228518;19;20021;-80
2022/06/16 09:57:57;;;;;;;2.00;1.20;;;27.80;36.60;;;26.12;39.27;101417.75;12226564;19;20019;-79
2022/06/16 10:02:13;;;;;;;1.70;1.58;;;27.80;36.20;;;26.07;39.39;101417.44;12229280;19;21000;-80
2022/06/16 10:06:40;;;;;;;2.50;1.02;;;27.80;36.20;;;26.32;39.00;101431.59;12225026;19;20017;-80
2022/06/16 10:11:19;;;;;;;1.63;1.15;;;27.80;36.50;;;26.54;39.21;101437.28;12225586;19;20025;-79
2022/06/16 10:15:47;;;;;;;1.83;1.30;;;27.90;36.40;;;26.68;38.88;101412.44;12226068;19;20041;-79
2022/06/16 10:19:51;;;;;;;1.40;1.30;;;28.10;36.30;;;26.92;38.74;101420.38;12226043;19;20031;-79
2022/06/16 10:24:00;;;;;;;1.88;1.58;;;28.30;36.40;;;26.92;38.25;101398.94;12227141;19;20017;-80
2022/06/16 10:28:22;;;;;;;1.50;1.40;;;28.40;35.80;;;27.15;37.83;101433.81;12222751;19;20038;-80
2022/06/16 10:32:41;;;;;;;2.35;1.35;;;28.50;35.40;;;27.18;37.86;101429.97;12227089;19;20011;-80
2022/06/16 10:36:50;;;;;;;2.50;1.40;;;28.60;35.30;;;27.04;37.86;101390.50;12227473;19;20037;-78
2022/06/16 10:40:52;;;;;;;1.65;1.45;;;28.70;35.30;;;27.05;37.49;101378.75;12225298;19;20150;-83
2022/06/16 10:45:01;;;;;;;1.30;1.20;;;28.80;35.20;;;27.51;37.30;101425.22;12229211;19;20033;-79
2022/06/16 10:49:13;;;;;;;2.40;1.40;;;28.80;35.20;;;27.61;37.17;101434.91;12225471;19;20021;-79
2022/06/16 10:53:23;;;;;;;2.45;1.60;;;29.10;35.00;;;27.69;37.16;101443.72;12225298;19;20018;-79
2022/06/16 10:57:33;;;;;;;2.50;1.38;;;29.10;34.90;;;27.70;36.91;101439.19;12224547;19;20698;-79
2022/06/16 11:02:15;;;;;;;2.22;1.65;;;29.10;34.50;;;27.70;37.10;101431.13;12223450;19;20024;-80
2022/06/16 11:06:22;;;;;;;3.08;1.70;;;29.20;34.80;;;27.67;36.86;101416.22;12222432;19;20014;-79
2022/06/16 11:10:35;;;;;;;2.40;1.58;;;29.20;34.80;;;27.39;36.89;101372.19;12227029;19;20026;-78
2022/06/16 11:15:09;;;;;;;2.90;1.60;;;29.30;34.40;;;27.86;36.39;101449.81;12226887;19;20018;-81
2022/06/16 11:19:33;;;;;;;1.60;1.48;;;29.30;34.30;;;27.75;36.17;101440.31;12211573;19;20039;-80
2022/06/16 11:23:44;;;;;;;3.72;1.40;;;29.30;34.40;;;27.68;36.25;101431.31;12217895;19;20028;-80
2022/06/16 11:27:50;;;;;;;2.13;1.70;;;29.40;34.30;;;27.63;36.33;101452.50;12214662;19;20064;-80
2022/06/16 11:32:15;;;;;;;4.22;1.80;;;29.30;34.00;;;27.41;36.33;101453.31;12224312;19;20031;-80
2022/06/16 11:36:44;;;;;;;1.90;1.47;;;29.10;33.90;;;27.40;36.17;101465.88;12220024;19;20027;-80
2022/06/16 11:41:01;;;;;;;5.15;1.20;;;29.00;34.20;;;27.34;35.97;101464.75;12225154;19;20021;-80
2022/06/16 11:45:27;;;;;;;2.22;1.38;;;28.90;34.10;;;27.39;36.21;101463.41;12221995;19;20078;-80
2022/06/16 11:49:40;;;;;;;2.72;1.20;;;28.90;34.10;;;27.39;36.35;101474.97;12226266;19;20038;-80
2022/06/16 11:54:33;;;;;;;3.10;1.40;;;28.90;34.20;;;27.48;36.08;101481.09;12220377;19;20027;-79
2022/06/16 11:59:13;;;;;;;2.15;1.05;;;28.90;34.30;;;27.48;36.14;101473.06;12220579;19;20038;-80
2022/06/16 12:03:54;;;;;;;2.40;1.30;;;28.90;34.20;;;27.48;36.01;101478.41;12223910;19;20031;-80
2022/06/16 12:08:46;;;;;;;2.38;1.33;;;28.90;34.30;;;27.20;36.01;101421.78;12194939;19;20018;-80
2022/06/16 12:13:04;;;;;;;1.35;1.25;;;28.90;34.60;;;27.51;35.53;101473.53;12217236;19;20014;-79
2022/06/16 12:17:24;;;;;;;2.15;1.35;;;28.90;33.90;;;27.38;35.56;101467.91;12214004;19;21072;-79
2022/06/16 12:21:52;;;;;;;4.55;1.05;;;28.90;33.90;;;27.52;35.64;101469.03;12209501;19;20018;-79
2022/06/16 12:26:19;;;;;;;2.28;1.45;;;28.90;34.10;;;27.71;35.63;101463.16;12205670;19;20090;-79
2022/06/16 12:30:47;;;;;;;4.43;1.40;;;29.00;34.00;;;27.69;35.63;101449.09;12220131;19;20018;-79
2022/06/16 12:35:18;;;;;;;2.80;1.40;;;29.10;33.90;;;27.87;35.26;101469.44;12215925;19;20011;-79
2022/06/16 12:39:35;;;;;;;2.83;1.40;;;29.20;33.70;;;27.88;35.11;101468.44;12216511;19;20032;-79
2022/06/16 12:43:49;;;;;;;1.92;1.23;;;29.30;33.40;;;27.95;34.65;101469.38;12220769;19;20014;-79
2022/06/16 12:47:59;;;;;;;3.00;1.55;;;29.30;33.40;;;27.97;34.72;101456.59;12216423;19;20029;-79
2022/06/16 12:52:19;;;;;;;2.25;1.40;;;29.40;33.30;;;27.79;34.68;101428.22;12198279;19;20448;-80
2022/06/16 12:56:54;;;;;;;2.70;1.50;;;29.40;33.40;;;28.07;34.63;101459.03;12217150;19;20010;-80
2022/06/16 13:01:03;;;;;;;2.05;1.65;;;29.40;33.20;;;27.94;34.34;101452.44;12217442;19;20349;-80
2022/06/16 13:05:09;;;;;;;1.50;1.30;;;29.50;33.40;;;28.00;34.57;101449.03;12218660;19;21007;-80
2022/06/16 13:09:14;;;;;;;1.50;1.40;;;29.50;33.10;;;28.07;34.35;101456.38;12216311;19;20498;-80
2022/06/16 13:13:25;;;;;;;2.45;1.42;;;29.50;33.00;;;27.97;34.39;101453.91;12216769;19;20011;-80
2022/06/16 13:17:32;;;;;;;2.40;1.50;;;29.60;33.10;;;27.99;34.28;101444.66;12215802;19;20490;-81
2022/06/16 13:21:53;;;;;;;1.55;1.40;;;29.50;33.00;;;28.06;33.65;101458.22;12219526;19;20475;-82
2022/06/16 13:26:14;;;;;;;2.55;1.40;;;29.60;32.80;;;28.18;33.93;101464.81;12215325;19;20010;-80
2022/06/16 13:30:32;;;;;;;1.48;1.30;;;29.60;32.80;;;28.14;33.99;101460.81;12220330;19;20363;-80
2022/06/16 13:34:40;;;;;;;1.58;1.40;;;29.60;32.70;;;28.26;33.52;101460.38;12214534;19;20671;-79
2022/06/16 13:38:45;;;;;;;1.83;1.40;;;29.60;32.50;;;28.03;33.93;101426.34;12219214;19;20017;-78
2022/06/16 13:42:55;;;;;;;1.55;1.23;;;29.70;32.60;;;28.34;33.63;101471.88;12219719;19;20023;-79
2022/06/16 13:46:57;;;;;;;4.05;1.38;;;29.70;32.60;;;28.41;33.69;101477.34;12224033;19;20039;-79
2022/06/16 13:51:02;;;;;;;1.60;1.30;;;29.70;32.50;;;28.42;33.46;101487.06;12230179;19;20046;-78
2022/06/16 13:55:21;;;;;;;3.30;1.45;;;29.80;32.50;;;28.50;33.33;101486.19;12228854;19;20042;-79
2022/06/16 13:59:38;;;;;;;1.63;1.23;;;29.80;32.50;;;28.49;33.37;101471.94;12228512;19;20014;-79
2022/06/16 14:03:58;;;;;;;3.58;1.83;;;29.90;32.30;;;28.47;33.09;101476.66;12227028;19;20019;-79
2022/06/16 14:08:12;;;;;;;1.40;1.30;;;29.90;32.30;;;28.46;33.12;101474.97;12222347;19;20045;-78
2022/06/16 14:12:55;;;;;;;1.58;1.33;;;29.90;32.40;;;28.55;33.20;101489.16;12226286;19;20014;-79
2022/06/16 14:16:58;;;;;;;2.13;1.60;;;30.00;31.70;;;28.33;33.02;101464.84;12221468;19;20040;-78
2022/06/16 14:21:10;;;;;;;2.17;1.43;;;29.90;32.00;;;28.30;33.08;101464.34;12226330;19;20296;-78
2022/06/16 14:25:34;;;;;;;2.83;1.67;;;29.90;32.10;;;28.33;33.13;101470.22;12224307;19;20099;-78
2022/06/16 14:29:38;;;;;;;1.77;1.40;;;29.80;32.10;;;28.35;33.03;101465.47;12227591;19;20014;-79
2022/06/16 14:34:11;;;;;;;2.08;1.17;;;29.80;32.10;;;28.32;32.82;101470.38;12221519;19;20014;-78
2022/06/16 14:38:22;;;;;;;2.80;1.50;;;29.80;32.10;;;28.18;32.71;101458.59;12221201;19;20011;-79
2022/06/16 14:42:32;;;;;;;1.52;1.23;;;29.70;31.80;;;28.01;33.04;101447.19;12223220;19;20215;-78
2022/06/16 14:47:18;;;;;;;1.90;1.10;;;29.70;32.10;;;28.12;32.98;101460.16;12229917;19;20014;-78
2022/06/16 14:51:31;;;;;;;3.00;1.27;;;29.60;32.10;;;28.13;33.13;101469.88;12238271;19;20373;-79
2022/06/16 14:56:03;;;;;;;2.03;1.40;;;29.60;32.10;;;28.09;32.96;101471.28;12235180;19;20014;-80
2022/06/16 15:00:09;;;;;;;1.95;0.95;;;29.60;32.20;;;27.74;32.78;101441.34;12237817;19;20484;-78
2022/06/16 15:04:15;;;;;;;1.20;1.15;;;29.50;32.00;;;27.81;32.83;101471.00;12230464;19;20014;-78
2022/06/16 15:08:27;;;;;;;1.38;1.27;;;29.40;31.90;;;27.54;32.47;101456.25;12232977;19;20026;-78
2022/06/16 15:12:29;;;;;;;2.90;1.40;;;29.30;31.90;;;27.53;32.81;101478.72;12232065;19;20029;-78
2022/06/16 15:21:15;;;;;;;2.13;1.38;;;29.10;32.10;;;27.21;33.07;101464.50;12227650;19;20440;-78
2022/06/16 15:25:29;;;;;;;1.83;1.20;;;29.00;32.20;;;27.29;33.06;101490.44;12229515;19;20385;-78
2022/06/16 15:29:39;;;;;;;1.20;1.10;;;28.90;32.20;;;27.25;33.40;101491.81;12233206;19;20010;-79
2022/06/16 15:38:23;;;;;;;3.58;1.40;;;28.70;32.20;;;26.99;33.28;101497.41;12227493;19;20013;-78
2022/06/16 15:42:25;;;;;;;1.40;0.95;;;28.60;32.40;;;26.88;33.53;101494.09;12233767;19;20014;-79
2022/06/16 15:46:28;;;;;;;2.00;1.23;;;28.50;32.30;;;26.86;33.62;101503.31;12235358;19;20034;-79
2022/06/16 15:50:30;;;;;;;4.63;1.30;;;28.50;32.50;;;26.76;33.67;101478.56;12234051;19;20025;-79
2022/06/16 15:54:37;;;;;;;1.08;0.90;;;28.40;32.70;;;26.86;33.24;101511.38;12228294;19;20011;-78
2022/06/16 15:59:07;;;;;;;2.00;0.90;;;28.40;32.50;;;26.76;33.24;101500.84;12218200;19;20023;-79
2022/06/16 16:03:12;;;;;;;1.15;0.93;;;28.40;32.50;;;26.89;33.60;101521.75;12220811;19;20018;-79
2022/06/16 16:07:14;;;;;;;1.00;0.90;;;28.30;32.40;;;26.83;33.37;101528.63;12222051;19;20057;-78
2022/06/16 16:11:27;;;;;;;2.40;1.35;;;28.60;32.70;;;26.82;33.17;101526.13;12210260;19;20018;-78
2022/06/16 16:15:32;;;;;;;0.80;0.80;;;28.30;32.30;;;26.41;33.26;101477.94;12224160;19;20411;-78
2022/06/16 16:19:58;;;;;;;1.98;1.35;;;28.30;32.20;;;26.60;33.08;101533.03;12222062;19;20401;-78
2022/06/16 16:24:02;;;;;;;1.80;0.90;;;28.20;32.00;;;26.33;33.17;101524.34;12224703;19;20018;-78
2022/06/16 16:28:21;;;;;;;1.42;0.88;;;28.30;32.10;;;26.39;33.34;101538.91;12222784;19;20490;-78
2022/06/16 16:32:34;;;;;;;2.60;0.90;;;28.00;32.00;;;26.33;33.28;101537.75;12224773;19;20018;-78
2022/06/16 16:36:47;;;;;;;2.40;1.02;;;27.90;31.90;;;26.21;33.03;101521.16;12220469;19;20018;-78
2022/06/16 16:45:45;;;;;;;1.13;1.02;;;27.90;32.00;;;26.22;32.62;101533.56;12222676;19;20121;-78
2022/06/16 16:50:03;;;;;;;3.17;1.60;;;27.80;31.90;;;26.17;33.12;101541.25;12222067;19;20086;-78
2022/06/16 16:54:12;;;;;;;1.58;0.90;;;27.70;31.90;;;25.82;32.72;101486.16;12222823;19;20028;-78
2022/06/16 16:58:19;;;;;;;0.80;0.70;;;27.60;31.80;;;25.96;32.84;101519.50;12220281;19;20011;-78
2022/06/16 17:02:21;;;;;;;2.30;0.70;;;27.60;31.80;;;25.90;32.73;101507.63;12222415;19;20019;-78
2022/06/16 17:06:23;;;;;;;1.02;0.80;;;27.60;32.00;;;25.91;33.18;101514.63;12221440;19;20015;-79
2022/06/16 17:10:26;;;;;;;1.55;0.68;;;27.50;32.00;;;25.90;32.82;101514.81;12222755;19;20052;-79
2022/06/16 17:14:41;;;;;;;1.58;0.70;;;27.50;31.80;;;25.90;32.49;101517.50;12221709;19;20023;-80
2022/06/16 17:18:43;;;;;;;1.58;0.60;;;27.50;31.90;;;25.79;32.89;101510.59;12219345;19;20021;-79
2022/06/16 17:22:45;;;;;;;1.42;0.70;;;27.50;31.90;;;25.86;32.84;101546.41;12234256;19;20027;-79
2022/06/16 17:26:47;;;;;;;1.55;0.70;;;27.40;31.90;;;25.71;33.02;101527.47;12229477;19;20480;-79
2022/06/16 17:30:49;;;;;;;0.63;0.63;;;27.40;31.80;;;25.61;33.02;101538.28;12233325;19;20019;-79
2022/06/16 17:34:55;;;;;;;2.10;0.80;;;27.30;32.00;;;25.69;33.04;101561.56;12234086;19;20991;-78
2022/06/16 17:38:57;;;;;;;0.85;0.80;;;27.20;32.10;;;25.53;32.86;101538.28;12235541;19;20027;-78
2022/06/16 17:43:00;;;;;;;2.28;0.73;;;27.20;32.10;;;25.39;33.09;101522.84;12233822;19;20522;-79
2022/06/16 17:47:02;;;;;;;0.80;0.77;;;27.20;31.80;;;25.50;32.73;101557.31;12232296;19;20031;-78